createdAt,value
2017-07-22T00:00:02.717Z,1014.16
2017-07-22T00:01:12.891Z,1014.09
2017-07-22T00:02:22.097Z,1014.11
2017-07-22T00:03:31.951Z,1014.07
2017-07-22T00:04:41.631Z,1014.11
2017-07-22T00:05:50.833Z,1014.1
2017-07-22T00:07:00.363Z,1014.05
2017-07-22T00:08:09.592Z,1014.03
2017-07-22T00:09:19.456Z,1014
2017-07-22T00:10:28.875Z,1014.01
2017-07-22T00:11:38.079Z,1013.96
2017-07-22T00:12:47.284Z,1014.01
2017-07-22T00:13:56.493Z,1013.99
2017-07-22T00:15:05.373Z,1014
2017-07-22T00:16:15.101Z,1013.99
2017-07-22T00:17:24.312Z,1014
2017-07-22T00:18:33.847Z,1013.95
2017-07-22T00:19:43.700Z,1013.94
2017-07-22T00:20:53.563Z,1013.92
2017-07-22T00:22:03.893Z,1013.86
2017-07-22T00:23:13.101Z,1013.85
2017-07-22T00:24:22.307Z,1013.85
2017-07-22T00:25:31.514Z,1013.83
2017-07-22T00:26:40.722Z,1013.81
2017-07-22T00:27:50.507Z,1013.74
2017-07-22T00:28:59.714Z,1013.84
2017-07-22T00:30:09.246Z,1013.84
2017-07-22T00:31:18.786Z,1013.83
2017-07-22T00:32:28.649Z,1013.87
2017-07-22T00:33:38.250Z,1013.87
2017-07-22T00:34:48.101Z,1013.85
2017-07-22T00:35:57.319Z,1013.84
2017-07-22T00:37:06.201Z,1013.78
2017-07-22T00:38:15.403Z,1013.84
2017-07-22T00:39:24.934Z,1013.84
2017-07-22T00:40:33.817Z,1013.88
2017-07-22T00:41:43.673Z,1013.83
2017-07-22T00:42:53.524Z,1013.82
2017-07-22T00:44:02.730Z,1013.87
2017-07-22T00:45:12.239Z,1013.9
2017-07-22T00:46:21.444Z,1013.87
2017-07-22T00:47:30.648Z,1013.86
2017-07-22T00:48:40.177Z,1013.84
2017-07-22T00:49:49.711Z,1013.85
2017-07-22T00:50:59.387Z,1013.81
2017-07-22T00:52:08.920Z,1013.83
2017-07-22T00:53:18.164Z,1013.83
2017-07-22T00:54:28.026Z,1013.8
2017-07-22T00:55:37.230Z,1013.81
2017-07-22T00:56:46.759Z,1013.82
2017-07-22T00:57:56.284Z,1013.81
2017-07-22T00:59:05.491Z,1013.78
2017-07-22T01:00:15.024Z,1013.81
2017-07-22T01:01:24.233Z,1013.8
2017-07-22T01:02:33.760Z,1013.8
2017-07-22T01:03:42.964Z,1013.82
2017-07-22T01:04:52.167Z,1013.8
2017-07-22T01:06:01.373Z,1013.82
2017-07-22T01:07:11.233Z,1013.81
2017-07-22T01:08:21.136Z,1013.76
2017-07-22T01:09:30.350Z,1013.76
2017-07-22T01:10:39.881Z,1013.71
2017-07-22T01:11:49.093Z,1013.69
2017-07-22T01:12:59.276Z,1013.67
2017-07-22T01:14:08.787Z,1013.64
2017-07-22T01:15:18.639Z,1013.65
2017-07-22T01:16:28.167Z,1013.64
2017-07-22T01:17:38.350Z,1013.61
2017-07-22T01:18:47.880Z,1013.62
2017-07-22T01:19:57.241Z,1013.59
2017-07-22T01:21:07.102Z,1013.57
2017-07-22T01:22:16.631Z,1013.59
2017-07-22T01:23:26.807Z,1013.58
2017-07-22T01:24:36.655Z,1013.6
2017-07-22T01:25:46.239Z,1013.53
2017-07-22T01:26:55.767Z,1013.49
2017-07-22T01:28:05.944Z,1013.48
2017-07-22T01:29:14.825Z,1013.53
2017-07-22T01:30:24.034Z,1013.53
2017-07-22T01:31:33.070Z,1013.57
2017-07-22T01:32:42.618Z,1013.54
2017-07-22T01:33:52.150Z,1013.5
2017-07-22T01:35:01.677Z,1013.53
2017-07-22T01:36:11.528Z,1013.53
2017-07-22T01:37:21.384Z,1013.53
2017-07-22T01:38:31.234Z,1013.46
2017-07-22T01:39:40.441Z,1013.48
2017-07-22T01:40:49.330Z,1013.47
2017-07-22T01:41:58.536Z,1013.45
2017-07-22T01:43:07.839Z,1013.47
2017-07-22T01:44:17.691Z,1013.46
2017-07-22T01:45:27.222Z,1013.43
2017-07-22T01:46:36.113Z,1013.44
2017-07-22T01:47:45.970Z,1013.43
2017-07-22T01:48:55.546Z,1013.4
2017-07-22T01:50:05.077Z,1013.4
2017-07-22T01:51:13.967Z,1013.37
2017-07-22T01:52:23.825Z,1013.35
2017-07-22T01:53:33.359Z,1013.34
2017-07-22T01:54:42.563Z,1013.26
2017-07-22T01:55:52.090Z,1013.23
2017-07-22T01:57:01.301Z,1013.24
2017-07-22T01:58:10.834Z,1013.28
2017-07-22T01:59:20.038Z,1013.22
2017-07-22T02:00:29.392Z,1013.22
2017-07-22T02:01:39.244Z,1013.21
2017-07-22T02:02:48.774Z,1013.2
2017-07-22T02:03:57.659Z,1013.16
2017-07-22T02:05:07.511Z,1013.15
2017-07-22T02:06:17.090Z,1013.1
2017-07-22T02:07:26.296Z,1013.09
2017-07-22T02:08:35.175Z,1013.07
2017-07-22T02:09:44.068Z,1013.04
2017-07-22T02:10:53.268Z,1013.02
2017-07-22T02:12:02.351Z,1013.05
2017-07-22T02:13:11.559Z,1013.04
2017-07-22T02:14:21.412Z,1013.03
2017-07-22T02:15:31.271Z,1013.05
2017-07-22T02:16:40.475Z,1013.04
2017-07-22T02:17:49.981Z,1013.01
2017-07-22T02:18:59.507Z,1012.94
2017-07-22T02:20:09.037Z,1012.93
2017-07-22T02:21:18.249Z,1012.96
2017-07-22T02:22:27.129Z,1012.94
2017-07-22T02:23:36.639Z,1012.89
2017-07-22T02:24:45.846Z,1012.95
2017-07-22T02:25:55.056Z,1012.97
2017-07-22T02:27:03.938Z,1013.07
2017-07-22T02:28:12.818Z,1013.05
2017-07-22T02:29:22.224Z,1013
2017-07-22T02:30:31.435Z,1012.99
2017-07-22T02:31:41.623Z,1013.01
2017-07-22T02:32:50.843Z,1012.97
2017-07-22T02:33:59.725Z,1012.94
2017-07-22T02:35:09.730Z,1012.96
2017-07-22T02:36:19.259Z,1012.93
2017-07-22T02:37:29.134Z,1013.02
2017-07-22T02:38:38.985Z,1012.97
2017-07-22T02:39:48.516Z,1012.98
2017-07-22T02:40:58.195Z,1012.96
2017-07-22T02:42:07.414Z,1012.96
2017-07-22T02:43:16.621Z,1012.93
2017-07-22T02:44:26.477Z,1012.9
2017-07-22T02:45:36.006Z,1012.86
2017-07-22T02:46:45.684Z,1012.88
2017-07-22T02:47:55.548Z,1012.86
2017-07-22T02:49:05.075Z,1012.85
2017-07-22T02:50:14.602Z,1012.92
2017-07-22T02:51:23.808Z,1012.9
2017-07-22T02:52:33.637Z,1012.91
2017-07-22T02:53:43.493Z,1012.9
2017-07-22T02:54:53.026Z,1012.94
2017-07-22T02:56:02.558Z,1012.93
2017-07-22T02:57:11.773Z,1012.93
2017-07-22T02:58:21.411Z,1012.92
2017-07-22T02:59:30.937Z,1012.89
2017-07-22T03:00:40.466Z,1012.89
2017-07-22T03:01:49.997Z,1012.87
2017-07-22T03:02:59.855Z,1012.91
2017-07-22T03:04:09.487Z,1012.91
2017-07-22T03:05:19.013Z,1012.86
2017-07-22T03:06:28.542Z,1012.85
2017-07-22T03:07:37.420Z,1012.85
2017-07-22T03:08:47.280Z,1012.87
2017-07-22T03:09:56.691Z,1012.89
2017-07-22T03:11:06.218Z,1012.85
2017-07-22T03:12:15.115Z,1012.82
2017-07-22T03:13:24.648Z,1012.78
2017-07-22T03:14:33.851Z,1012.85
2017-07-22T03:15:43.053Z,1012.79
2017-07-22T03:16:52.258Z,1012.82
2017-07-22T03:18:01.795Z,1012.8
2017-07-22T03:19:11.654Z,1012.77
2017-07-22T03:20:21.182Z,1012.81
2017-07-22T03:21:31.134Z,1012.82
2017-07-22T03:22:40.983Z,1012.82
2017-07-22T03:23:50.517Z,1012.83
2017-07-22T03:25:00.945Z,1012.83
2017-07-22T03:26:10.480Z,1012.76
2017-07-22T03:27:20.110Z,1012.78
2017-07-22T03:28:29.316Z,1012.77
2017-07-22T03:29:38.848Z,1012.72
2017-07-22T03:30:48.375Z,1012.72
2017-07-22T03:31:58.561Z,1012.71
2017-07-22T03:33:08.141Z,1012.72
2017-07-22T03:34:17.025Z,1012.7
2017-07-22T03:35:26.554Z,1012.74
2017-07-22T03:36:35.776Z,1012.69
2017-07-22T03:37:45.305Z,1012.68
2017-07-22T03:38:54.511Z,1012.67
2017-07-22T03:40:04.363Z,1012.67
2017-07-22T03:41:13.246Z,1012.64
2017-07-22T03:42:23.101Z,1012.68
2017-07-22T03:43:32.627Z,1012.69
2017-07-22T03:44:42.258Z,1012.76
2017-07-22T03:45:52.109Z,1012.82
2017-07-22T03:47:00.992Z,1012.82
2017-07-22T03:48:10.197Z,1012.81
2017-07-22T03:49:19.076Z,1012.84
2017-07-22T03:50:28.108Z,1012.81
2017-07-22T03:51:37.637Z,1012.77
2017-07-22T03:52:46.843Z,1012.75
2017-07-22T03:53:56.696Z,1012.73
2017-07-22T03:55:06.227Z,1012.77
2017-07-22T03:56:16.183Z,1012.78
2017-07-22T03:57:25.387Z,1012.81
2017-07-22T03:58:34.268Z,1012.79
2017-07-22T03:59:43.796Z,1012.81
2017-07-22T04:00:53.003Z,1012.83
2017-07-22T04:02:02.597Z,1012.78
2017-07-22T04:03:12.125Z,1012.82
2017-07-22T04:04:21.975Z,1012.8
2017-07-22T04:05:31.506Z,1012.78
2017-07-22T04:06:41.037Z,1012.8
2017-07-22T04:07:50.288Z,1012.79
2017-07-22T04:08:59.820Z,1012.77
2017-07-22T04:10:09.028Z,1012.78
2017-07-22T04:11:18.557Z,1012.81
2017-07-22T04:12:27.763Z,1012.81
2017-07-22T04:13:37.442Z,1012.75
2017-07-22T04:14:46.978Z,1012.77
2017-07-22T04:15:56.512Z,1012.77
2017-07-22T04:17:05.718Z,1012.78
2017-07-22T04:18:15.247Z,1012.82
2017-07-22T04:19:24.777Z,1012.79
2017-07-22T04:20:33.983Z,1012.83
2017-07-22T04:21:43.514Z,1012.81
2017-07-22T04:22:52.715Z,1012.82
2017-07-22T04:24:01.920Z,1012.79
2017-07-22T04:25:11.750Z,1012.76
2017-07-22T04:26:21.283Z,1012.74
2017-07-22T04:27:31.136Z,1012.69
2017-07-22T04:28:40.669Z,1012.75
2017-07-22T04:29:49.876Z,1012.75
2017-07-22T04:30:59.234Z,1012.75
2017-07-22T04:32:08.440Z,1012.74
2017-07-22T04:33:18.619Z,1012.77
2017-07-22T04:34:27.503Z,1012.68
2017-07-22T04:35:36.385Z,1012.69
2017-07-22T04:36:46.067Z,1012.65
2017-07-22T04:37:55.276Z,1012.64
2017-07-22T04:39:04.480Z,1012.63
2017-07-22T04:40:13.689Z,1012.61
2017-07-22T04:41:23.221Z,1012.65
2017-07-22T04:42:32.851Z,1012.69
2017-07-22T04:43:41.733Z,1012.73
2017-07-22T04:44:50.939Z,1012.77
2017-07-22T04:46:00.142Z,1012.87
2017-07-22T04:47:09.027Z,1012.9
2017-07-22T04:48:18.235Z,1013.01
2017-07-22T04:49:28.084Z,1013.05
2017-07-22T04:50:37.288Z,1013.1
2017-07-22T04:51:46.836Z,1013.21
2017-07-22T04:52:56.043Z,1013.26
2017-07-22T04:54:05.302Z,1013.46
2017-07-22T04:55:14.508Z,1013.59
2017-07-22T04:56:23.712Z,1013.55
2017-07-22T04:57:33.895Z,1013.46
2017-07-22T04:58:43.110Z,1013.3
2017-07-22T04:59:53.211Z,1013.32
2017-07-22T05:01:02.750Z,1013.57
2017-07-22T05:02:12.277Z,1013.62
2017-07-22T05:03:21.169Z,1013.46
2017-07-22T05:04:30.703Z,1013.26
2017-07-22T05:05:40.059Z,1013.36
2017-07-22T05:06:48.945Z,1013.6
2017-07-22T05:07:58.803Z,1013.61
2017-07-22T05:09:07.686Z,1013.46
2017-07-22T05:10:16.894Z,1013.42
2017-07-22T05:11:26.413Z,1013.5
2017-07-22T05:12:35.940Z,1013.37
2017-07-22T05:13:44.834Z,1013.23
2017-07-22T05:14:53.719Z,1013.24
2017-07-22T05:16:03.627Z,1013.3
2017-07-22T05:17:13.160Z,1013.26
2017-07-22T05:18:23.018Z,1013.27
2017-07-22T05:19:32.555Z,1013.2
2017-07-22T05:20:42.094Z,1013.16
2017-07-22T05:21:52.270Z,1013.08
2017-07-22T05:23:02.272Z,1013.05
2017-07-22T05:24:11.485Z,1013.04
2017-07-22T05:25:20.381Z,1013.08
2017-07-22T05:26:29.911Z,1013.08
2017-07-22T05:27:39.129Z,1013.05
2017-07-22T05:28:48.660Z,1013.06
2017-07-22T05:29:57.544Z,1013.02
2017-07-22T05:31:06.434Z,1013.01
2017-07-22T05:32:16.286Z,1013.01
2017-07-22T05:33:25.495Z,1013.03
2017-07-22T05:34:35.073Z,1012.96
2017-07-22T05:35:44.273Z,1012.97
2017-07-22T05:36:53.485Z,1012.96
2017-07-22T05:38:03.337Z,1013
2017-07-22T05:39:13.190Z,1012.97
2017-07-22T05:40:22.869Z,1013.01
2017-07-22T05:41:32.722Z,1013.09
2017-07-22T05:42:41.929Z,1013.13
2017-07-22T05:43:51.459Z,1013.08
2017-07-22T05:45:00.672Z,1013.06
2017-07-22T05:46:10.311Z,1013.05
2017-07-22T05:47:19.518Z,1013.06
2017-07-22T05:48:29.059Z,1013.1
2017-07-22T05:49:38.590Z,1013.19
2017-07-22T05:50:47.795Z,1013.24
2017-07-22T05:51:56.878Z,1013.3
2017-07-22T05:53:06.083Z,1013.34
2017-07-22T05:54:15.936Z,1013.39
2017-07-22T05:55:25.466Z,1013.47
2017-07-22T05:56:35.322Z,1013.44
2017-07-22T05:57:44.351Z,1013.46
2017-07-22T05:58:54.207Z,1013.44
2017-07-22T06:00:03.738Z,1013.39
2017-07-22T06:01:12.946Z,1013.44
2017-07-22T06:02:22.477Z,1013.45
2017-07-22T06:03:32.009Z,1013.41
2017-07-22T06:04:41.544Z,1013.34
2017-07-22T06:05:51.402Z,1013.38
2017-07-22T06:07:00.289Z,1013.34
2017-07-22T06:08:09.177Z,1013.35
2017-07-22T06:09:19.090Z,1013.35
2017-07-22T06:10:27.975Z,1013.35
2017-07-22T06:11:37.185Z,1013.35
2017-07-22T06:12:46.720Z,1013.44
2017-07-22T06:13:55.930Z,1013.45
2017-07-22T06:15:06.088Z,1013.42
2017-07-22T06:16:15.629Z,1013.45
2017-07-22T06:17:25.481Z,1013.45
2017-07-22T06:18:35.337Z,1013.36
2017-07-22T06:19:45.186Z,1013.33
2017-07-22T06:20:54.871Z,1013.36
2017-07-22T06:22:04.078Z,1013.32
2017-07-22T06:23:13.610Z,1013.41
2017-07-22T06:24:22.492Z,1013.49
2017-07-22T06:25:32.346Z,1013.5
2017-07-22T06:26:42.029Z,1013.59
2017-07-22T06:27:50.913Z,1013.61
2017-07-22T06:29:00.759Z,1013.58
2017-07-22T06:30:09.643Z,1013.57
2017-07-22T06:31:19.185Z,1013.55
2017-07-22T06:32:29.090Z,1013.48
2017-07-22T06:33:38.621Z,1013.5
2017-07-22T06:34:47.507Z,1013.48
2017-07-22T06:35:56.713Z,1013.48
2017-07-22T06:37:06.247Z,1013.46
2017-07-22T06:38:15.603Z,1013.5
2017-07-22T06:39:24.814Z,1013.47
2017-07-22T06:40:33.701Z,1013.46
2017-07-22T06:41:43.229Z,1013.46
2017-07-22T06:42:52.762Z,1013.47
2017-07-22T06:44:01.796Z,1013.44
2017-07-22T06:45:11.660Z,1013.44
2017-07-22T06:46:21.193Z,1013.47
2017-07-22T06:47:30.722Z,1013.51
2017-07-22T06:48:39.934Z,1013.58
2017-07-22T06:49:48.921Z,1013.56
2017-07-22T06:50:58.137Z,1013.57
2017-07-22T06:52:07.671Z,1013.54
2017-07-22T06:53:16.878Z,1013.54
2017-07-22T06:54:26.081Z,1013.51
2017-07-22T06:55:35.665Z,1013.49
2017-07-22T06:56:45.845Z,1013.55
2017-07-22T06:57:54.731Z,1013.56
2017-07-22T06:59:03.936Z,1013.56
2017-07-22T07:00:13.143Z,1013.58
2017-07-22T07:01:22.935Z,1013.59
2017-07-22T07:02:32.793Z,1013.69
2017-07-22T07:03:42.656Z,1013.77
2017-07-22T07:04:51.551Z,1013.83
2017-07-22T07:06:01.405Z,1013.85
2017-07-22T07:07:10.611Z,1013.97
2017-07-22T07:08:20.465Z,1014.05
2017-07-22T07:09:29.351Z,1014.1
2017-07-22T07:10:38.882Z,1014.12
2017-07-22T07:11:48.096Z,1014.09
2017-07-22T07:12:57.301Z,1014.12
2017-07-22T07:14:06.510Z,1014.12
2017-07-22T07:15:16.370Z,1014.1
2017-07-22T07:16:25.928Z,1014.06
2017-07-22T07:17:36.126Z,1014.04
2017-07-22T07:18:45.818Z,1014.01
2017-07-22T07:19:55.038Z,1013.98
2017-07-22T07:21:04.900Z,1014.02
2017-07-22T07:22:14.443Z,1014.03
2017-07-22T07:23:23.650Z,1014.04
2017-07-22T07:24:32.908Z,1014.1
2017-07-22T07:25:42.762Z,1014.13
2017-07-22T07:26:51.976Z,1014.13
2017-07-22T07:28:01.509Z,1014.17
2017-07-22T07:29:11.164Z,1014.16
2017-07-22T07:30:20.486Z,1014.16
2017-07-22T07:31:30.014Z,1014.1
2017-07-22T07:32:39.228Z,1014.07
2017-07-22T07:33:48.176Z,1014.1
2017-07-22T07:34:57.405Z,1014.04
2017-07-22T07:36:06.712Z,1014.07
2017-07-22T07:37:15.938Z,1014.06
2017-07-22T07:38:24.820Z,1014.06
2017-07-22T07:39:34.356Z,1014.02
2017-07-22T07:40:43.238Z,1014.01
2017-07-22T07:41:52.819Z,1013.9
2017-07-22T07:43:02.028Z,1013.92
2017-07-22T07:44:11.237Z,1013.91
2017-07-22T07:45:20.788Z,1013.93
2017-07-22T07:46:29.990Z,1013.97
2017-07-22T07:47:39.669Z,1013.92
2017-07-22T07:48:48.875Z,1013.94
2017-07-22T07:49:58.081Z,1013.91
2017-07-22T07:51:07.290Z,1013.96
2017-07-22T07:52:16.502Z,1013.9
2017-07-22T07:53:26.068Z,1013.89
2017-07-22T07:54:35.282Z,1013.85
2017-07-22T07:55:44.833Z,1013.83
2017-07-22T07:56:54.366Z,1013.81
2017-07-22T07:58:03.947Z,1013.81
2017-07-22T07:59:13.479Z,1013.84
2017-07-22T08:00:22.362Z,1013.78
2017-07-22T08:01:31.571Z,1013.82
2017-07-22T08:02:41.426Z,1013.79
2017-07-22T08:03:51.156Z,1013.76
2017-07-22T08:05:00.699Z,1013.79
2017-07-22T08:06:10.559Z,1013.76
2017-07-22T08:07:20.087Z,1013.76
2017-07-22T08:08:29.291Z,1013.75
2017-07-22T08:09:38.494Z,1013.71
2017-07-22T08:10:48.360Z,1013.72
2017-07-22T08:11:57.887Z,1013.71
2017-07-22T08:13:07.422Z,1013.71
2017-07-22T08:14:17.275Z,1013.69
2017-07-22T08:15:26.486Z,1013.66
2017-07-22T08:16:35.376Z,1013.64
2017-07-22T08:17:44.583Z,1013.65
2017-07-22T08:18:54.438Z,1013.58
2017-07-22T08:20:03.645Z,1013.62
2017-07-22T08:21:13.179Z,1013.61
2017-07-22T08:22:22.722Z,1013.73
2017-07-22T08:23:31.610Z,1013.77
2017-07-22T08:24:40.826Z,1013.79
2017-07-22T08:25:50.359Z,1013.8
2017-07-22T08:26:59.562Z,1013.89
2017-07-22T08:28:08.767Z,1013.98
2017-07-22T08:29:18.301Z,1014
2017-07-22T08:30:28.261Z,1014
2017-07-22T08:31:37.142Z,1014.02
2017-07-22T08:32:46.361Z,1014.02
2017-07-22T08:33:55.240Z,1014.06
2017-07-22T08:35:04.452Z,1014.1
2017-07-22T08:36:13.769Z,1014.1
2017-07-22T08:37:23.302Z,1014.11
2017-07-22T08:38:32.207Z,1014.16
2017-07-22T08:39:41.418Z,1014.21
2017-07-22T08:40:50.302Z,1014.17
2017-07-22T08:41:59.761Z,1014.24
2017-07-22T08:43:08.968Z,1014.24
2017-07-22T08:44:18.502Z,1014.21
2017-07-22T08:45:27.711Z,1014.22
2017-07-22T08:46:36.719Z,1014.22
2017-07-22T08:47:45.703Z,1014.23
2017-07-22T08:48:54.584Z,1014.2
2017-07-22T08:50:03.482Z,1014.23
2017-07-22T08:51:12.690Z,1014.2
2017-07-22T08:52:22.549Z,1014.18
2017-07-22T08:53:31.860Z,1014.19
2017-07-22T08:54:41.390Z,1014.19
2017-07-22T08:55:50.603Z,1014.17
2017-07-22T08:56:59.488Z,1014.18
2017-07-22T08:58:09.017Z,1014.13
2017-07-22T08:59:18.698Z,1014.13
2017-07-22T09:00:28.226Z,1014.11
2017-07-22T09:01:37.433Z,1014.09
2017-07-22T09:02:46.321Z,1014.08
2017-07-22T09:03:55.209Z,1014.1
2017-07-22T09:05:04.712Z,1014.03
2017-07-22T09:06:13.919Z,1014.03
2017-07-22T09:07:23.136Z,1014.02
2017-07-22T09:08:32.358Z,1014.01
2017-07-22T09:09:41.254Z,1014.01
2017-07-22T09:10:50.626Z,1013.95
2017-07-22T09:12:00.480Z,1013.97
2017-07-22T09:13:10.661Z,1013.93
2017-07-22T09:14:19.880Z,1013.97
2017-07-22T09:15:28.763Z,1013.98
2017-07-22T09:16:37.646Z,1014.03
2017-07-22T09:17:46.857Z,1014.01
2017-07-22T09:18:56.066Z,1013.96
2017-07-22T09:20:05.600Z,1013.95
2017-07-22T09:21:14.810Z,1013.91
2017-07-22T09:22:24.964Z,1013.89
2017-07-22T09:23:34.493Z,1013.89
2017-07-22T09:24:43.702Z,1013.9
2017-07-22T09:25:52.912Z,1013.79
2017-07-22T09:27:02.768Z,1013.83
2017-07-22T09:28:11.805Z,1013.76
2017-07-22T09:29:21.664Z,1013.76
2017-07-22T09:30:30.554Z,1013.77
2017-07-22T09:31:39.765Z,1013.75
2017-07-22T09:32:49.630Z,1013.74
2017-07-22T09:33:59.413Z,1013.73
2017-07-22T09:35:08.965Z,1013.73
2017-07-22T09:36:18.532Z,1013.74
2017-07-22T09:37:27.426Z,1013.71
2017-07-22T09:38:36.962Z,1013.73
2017-07-22T09:39:46.766Z,1013.72
2017-07-22T09:40:56.297Z,1013.76
2017-07-22T09:42:05.836Z,1013.76
2017-07-22T09:43:15.065Z,1013.8
2017-07-22T09:44:24.600Z,1013.82
2017-07-22T09:45:34.016Z,1013.86
2017-07-22T09:46:43.222Z,1013.87
2017-07-22T09:47:52.479Z,1013.86
2017-07-22T09:49:02.345Z,1013.9
2017-07-22T09:50:11.874Z,1013.96
2017-07-22T09:51:21.238Z,1013.91
2017-07-22T09:52:30.466Z,1013.93
2017-07-22T09:53:39.684Z,1013.94
2017-07-22T09:54:49.209Z,1013.92
2017-07-22T09:55:58.420Z,1013.93
2017-07-22T09:57:07.613Z,1013.93
2017-07-22T09:58:16.825Z,1013.87
2017-07-22T09:59:25.711Z,1013.81
2017-07-22T10:00:35.566Z,1013.86
2017-07-22T10:01:45.122Z,1013.87
2017-07-22T10:02:54.390Z,1013.89
2017-07-22T10:04:04.243Z,1013.91
2017-07-22T10:05:13.459Z,1013.92
2017-07-22T10:06:22.670Z,1013.95
2017-07-22T10:07:31.892Z,1013.9
2017-07-22T10:08:42.085Z,1013.88
2017-07-22T10:09:51.295Z,1013.95
2017-07-22T10:11:00.875Z,1013.97
2017-07-22T10:12:10.837Z,1013.91
2017-07-22T10:13:19.744Z,1013.94
2017-07-22T10:14:29.492Z,1013.96
2017-07-22T10:15:39.037Z,1013.98
2017-07-22T10:16:48.899Z,1014.05
2017-07-22T10:17:58.435Z,1014.07
2017-07-22T10:19:07.977Z,1014.02
2017-07-22T10:20:17.390Z,1014.01
2017-07-22T10:21:26.282Z,1014.03
2017-07-22T10:22:35.212Z,1014.01
2017-07-22T10:23:44.424Z,1014.01
2017-07-22T10:24:53.959Z,1013.99
2017-07-22T10:26:02.908Z,1013.99
2017-07-22T10:27:12.447Z,1013.99
2017-07-22T10:28:21.337Z,1013.99
2017-07-22T10:29:30.580Z,1013.99
2017-07-22T10:30:40.110Z,1013.98
2017-07-22T10:31:49.520Z,1013.96
2017-07-22T10:32:58.623Z,1013.96
2017-07-22T10:34:08.292Z,1014
2017-07-22T10:35:18.232Z,1014.01
2017-07-22T10:36:27.443Z,1014.01
2017-07-22T10:37:36.808Z,1013.94
2017-07-22T10:38:46.033Z,1014
2017-07-22T10:39:55.831Z,1013.96
2017-07-22T10:41:05.701Z,1013.97
2017-07-22T10:42:15.140Z,1013.98
2017-07-22T10:43:24.550Z,1013.99
2017-07-22T10:44:33.643Z,1013.91
2017-07-22T10:45:43.179Z,1013.93
2017-07-22T10:46:52.720Z,1013.94
2017-07-22T10:48:02.251Z,1013.94
2017-07-22T10:49:12.578Z,1013.92
2017-07-22T10:50:21.790Z,1013.93
2017-07-22T10:51:31.347Z,1013.99
2017-07-22T10:52:40.560Z,1014
2017-07-22T10:53:50.103Z,1013.98
2017-07-22T10:54:59.467Z,1013.97
2017-07-22T10:56:08.681Z,1013.98
2017-07-22T10:57:17.898Z,1013.99
2017-07-22T10:58:27.431Z,1014.01
2017-07-22T10:59:36.961Z,1013.93
2017-07-22T11:00:46.707Z,1013.93
2017-07-22T11:01:55.921Z,1013.93
2017-07-22T11:03:05.781Z,1013.9
2017-07-22T11:04:15.637Z,1013.91
2017-07-22T11:05:24.850Z,1013.89
2017-07-22T11:06:34.686Z,1013.94
2017-07-22T11:07:44.220Z,1013.97
2017-07-22T11:08:53.105Z,1013.94
2017-07-22T11:10:02.642Z,1013.93
2017-07-22T11:11:11.853Z,1013.98
2017-07-22T11:12:20.791Z,1014
2017-07-22T11:13:29.998Z,1014
2017-07-22T11:14:39.859Z,1014.03
2017-07-22T11:15:49.082Z,1013.98
2017-07-22T11:16:58.633Z,1014.02
2017-07-22T11:18:08.051Z,1013.98
2017-07-22T11:19:17.908Z,1014.02
2017-07-22T11:20:27.770Z,1014.01
2017-07-22T11:21:36.993Z,1014.02
2017-07-22T11:22:46.531Z,1014.05
2017-07-22T11:23:56.170Z,1014.05
2017-07-22T11:25:06.359Z,1014.12
2017-07-22T11:26:15.570Z,1014.06
2017-07-22T11:27:24.787Z,1014.1
2017-07-22T11:28:34.329Z,1014.12
2017-07-22T11:29:44.200Z,1014.13
2017-07-22T11:30:53.733Z,1014.12
2017-07-22T11:32:03.599Z,1014.11
2017-07-22T11:33:13.138Z,1014.08
2017-07-22T11:34:22.688Z,1014.04
2017-07-22T11:35:32.000Z,1014.05
2017-07-22T11:36:41.539Z,1014.05
2017-07-22T11:37:50.434Z,1014.05
2017-07-22T11:38:59.656Z,1014.02
2017-07-22T11:40:09.192Z,1014.05
2017-07-22T11:41:19.247Z,1014.06
2017-07-22T11:42:28.154Z,1014.03
2017-07-22T11:43:37.047Z,1014.08
2017-07-22T11:44:46.342Z,1014.02
2017-07-22T11:45:56.228Z,1014
2017-07-22T11:47:05.170Z,1014
2017-07-22T11:48:15.366Z,1013.98
2017-07-22T11:49:25.229Z,1013.99
2017-07-22T11:50:34.775Z,1014
2017-07-22T11:51:43.665Z,1013.98
2017-07-22T11:52:52.563Z,1013.96
2017-07-22T11:54:02.113Z,1014.01
2017-07-22T11:55:11.664Z,1014.02
2017-07-22T11:56:21.203Z,1014.02
2017-07-22T11:57:30.124Z,1014.03
2017-07-22T11:58:39.597Z,1013.95
2017-07-22T11:59:48.830Z,1013.98
2017-07-22T12:00:58.039Z,1014.03
2017-07-22T12:02:07.259Z,1013.98
2017-07-22T12:03:16.616Z,1014.03
2017-07-22T12:04:26.458Z,1013.92
2017-07-22T12:05:35.999Z,1013.96
2017-07-22T12:06:45.213Z,1013.98
2017-07-22T12:07:55.076Z,1013.89
2017-07-22T12:09:04.620Z,1013.86
2017-07-22T12:10:13.720Z,1013.84
2017-07-22T12:11:22.932Z,1013.88
2017-07-22T12:12:32.472Z,1013.8
2017-07-22T12:13:41.688Z,1013.84
2017-07-22T12:14:50.908Z,1013.84
2017-07-22T12:16:00.227Z,1013.82
2017-07-22T12:17:09.444Z,1013.82
2017-07-22T12:18:18.339Z,1013.8
2017-07-22T12:19:27.884Z,1013.82
2017-07-22T12:20:37.496Z,1013.81
2017-07-22T12:21:47.334Z,1013.87
2017-07-22T12:22:56.230Z,1013.85
2017-07-22T12:24:05.797Z,1013.87
2017-07-22T12:25:15.016Z,1013.86
2017-07-22T12:26:24.234Z,1013.92
2017-07-22T12:27:34.306Z,1013.91
2017-07-22T12:28:43.902Z,1013.82
2017-07-22T12:29:54.095Z,1013.91
2017-07-22T12:31:03.660Z,1013.84
2017-07-22T12:32:12.880Z,1013.96
2017-07-22T12:33:22.226Z,1013.94
2017-07-22T12:34:31.449Z,1013.99
2017-07-22T12:35:41.000Z,1013.94
2017-07-22T12:36:50.883Z,1013.97
2017-07-22T12:38:00.429Z,1013.94
2017-07-22T12:39:09.801Z,1013.97
2017-07-22T12:40:19.349Z,1013.9
2017-07-22T12:41:28.565Z,1013.95
2017-07-22T12:42:37.847Z,1014.05
2017-07-22T12:43:47.786Z,1014.01
2017-07-22T12:44:57.268Z,1014
2017-07-22T12:46:06.489Z,1013.98
2017-07-22T12:47:16.360Z,1014.06
2017-07-22T12:48:25.585Z,1014.06
2017-07-22T12:49:35.137Z,1014.01
2017-07-22T12:50:44.461Z,1014.02
2017-07-22T12:51:53.694Z,1014.01
2017-07-22T12:53:03.237Z,1014.03
2017-07-22T12:54:12.786Z,1014.06
2017-07-22T12:55:22.670Z,1014.07
2017-07-22T12:56:31.893Z,1014.12
2017-07-22T12:57:41.478Z,1014.09
2017-07-22T12:58:51.422Z,1014.13
2017-07-22T13:00:01.623Z,1014.2
2017-07-22T13:01:11.220Z,1014.23
2017-07-22T13:02:21.195Z,1014.2
2017-07-22T13:03:30.949Z,1014.24
2017-07-22T13:04:40.556Z,1014.24
2017-07-22T13:05:50.001Z,1014.1
2017-07-22T13:06:59.115Z,1014.22
2017-07-22T13:08:09.044Z,1014.19
2017-07-22T13:09:18.590Z,1014.17
2017-07-22T13:10:28.468Z,1014.2
2017-07-22T13:11:37.374Z,1014.17
2017-07-22T13:12:46.924Z,1013.97
2017-07-22T13:13:56.575Z,1014.01
2017-07-22T13:15:06.177Z,1014.17
2017-07-22T13:16:16.048Z,1014.19
2017-07-22T13:17:24.970Z,1014.13
2017-07-22T13:18:34.732Z,1014.07
2017-07-22T13:19:44.107Z,1014.03
2017-07-22T13:20:53.158Z,1014.16
2017-07-22T13:22:03.158Z,1014.17
2017-07-22T13:23:13.566Z,1014.18
2017-07-22T13:24:23.724Z,1014.09
2017-07-22T13:25:33.400Z,1014.09
2017-07-22T13:26:42.868Z,1014.1
2017-07-22T13:27:52.506Z,1014.09
2017-07-22T13:29:02.714Z,1014.07
2017-07-22T13:30:12.489Z,1014.1
2017-07-22T13:31:22.786Z,1014.03
2017-07-22T13:32:33.163Z,1014
2017-07-22T13:33:42.490Z,1014.03
2017-07-22T13:34:51.835Z,1014.04
2017-07-22T13:36:01.388Z,1013.97
2017-07-22T13:37:10.953Z,1013.89
2017-07-22T13:38:20.671Z,1013.88
2017-07-22T13:39:30.027Z,1013.84
2017-07-22T13:40:39.013Z,1013.86
2017-07-22T13:41:49.097Z,1013.8
2017-07-22T13:42:58.619Z,1013.84
2017-07-22T13:44:08.240Z,1013.82
2017-07-22T13:45:18.099Z,1013.71
2017-07-22T13:46:27.440Z,1013.72
2017-07-22T13:47:36.574Z,1013.89
2017-07-22T13:48:46.033Z,1013.66
2017-07-22T13:49:55.611Z,1013.63
2017-07-22T13:51:05.224Z,1013.96
2017-07-22T13:52:14.399Z,1013.86
2017-07-22T13:53:23.372Z,1013.87
2017-07-22T13:54:33.637Z,1013.88
2017-07-22T13:55:43.272Z,1013.68
2017-07-22T13:56:52.654Z,1013.68
2017-07-22T13:58:02.207Z,1013.7
2017-07-22T13:59:11.755Z,1013.67
2017-07-22T14:00:21.873Z,1013.86
2017-07-22T14:01:31.746Z,1013.86
2017-07-22T14:02:41.618Z,1013.8
2017-07-22T14:03:51.164Z,1013.77